Time;durP1;ratioP1;P1;durP2;ratioP2;P2;SDS_P1;SDS_P2;PMS_P1;PMS_P2;Temp;Humidity;BMP_temperature;BMP_pressure;BME280_temperature;BME280_humidity;BME280_pressure;Samples;Min_cycle;Max_cycle;Signal;HPM_P1;HPM_P2
2022/06/18 00:00:44;;;;;;;11.20;8.52;;;;;;;23.64;76.46;99948.84;5037290;28;20033;-67
2022/06/18 00:03:11;;;;;;;11.00;8.50;;;;;;;23.71;76.36;99947.63;5039876;28;20040;-67
2022/06/18 00:05:38;;;;;;;11.38;8.95;;;;;;;23.79;75.94;99943.72;5039401;28;20334;-67
2022/06/18 00:08:11;;;;;;;10.73;9.23;;;;;;;23.81;75.13;99936.16;5039978;28;20448;-67
2022/06/18 00:10:37;;;;;;;10.60;8.27;;;;;;;23.87;73.93;99944.13;5040524;28;20037;-66
2022/06/18 00:13:41;;;;;;;13.30;8.73;;;;;;;23.82;74.05;99944.03;5038716;28;20231;-67
2022/06/18 00:16:15;;;;;;;11.07;9.32;;;;;;;23.67;74.91;99932.94;5040227;28;20096;-66
2022/06/18 00:18:41;;;;;;;10.75;9.13;;;;;;;23.51;75.79;99933.72;5039730;28;20424;-67
2022/06/18 00:21:08;;;;;;;13.75;9.13;;;;;;;23.33;75.99;99925.78;5023734;28;20032;-66
2022/06/18 00:23:37;;;;;;;12.02;9.60;;;;;;;23.51;74.85;99917.50;5041034;28;20071;-67
2022/06/18 00:26:03;;;;;;;10.35;9.20;;;;;;;23.44;74.85;99912.22;5039648;28;20086;-66
2022/06/18 00:28:31;;;;;;;14.50;9.18;;;;;;;23.48;75.01;99907.16;5041769;28;20029;-67
2022/06/18 00:30:57;;;;;;;11.75;9.43;;;;;;;23.58;74.31;99903.84;5041058;28;20092;-67
2022/06/18 00:33:23;;;;;;;13.32;8.65;;;;;;;23.60;73.87;99912.53;5039930;28;20109;-67
2022/06/18 00:35:51;;;;;;;10.63;8.82;;;;;;;23.58;73.77;99912.78;5039114;28;20038;-66
2022/06/18 00:38:30;;;;;;;12.95;9.88;;;;;;;23.59;73.35;99919.00;5037573;28;20036;-66
2022/06/18 00:40:57;;;;;;;10.13;8.70;;;;;;;23.63;73.19;99909.34;5038655;28;20397;-67
2022/06/18 00:43:51;;;;;;;12.55;9.68;;;;;;;23.60;73.28;99902.56;5039053;28;20076;-66
2022/06/18 00:46:35;;;;;;;13.70;9.10;;;;;;;23.47;74.20;99900.94;5031211;28;20327;-66
2022/06/18 00:49:33;;;;;;;13.52;8.90;;;;;;;23.44;74.58;99900.59;5036050;28;20033;-66
2022/06/18 00:52:26;;;;;;;10.45;8.85;;;;;;;23.44;75.29;99903.31;5038449;28;20269;-67
2022/06/18 00:55:13;;;;;;;10.05;8.80;;;;;;;23.49;75.26;99900.69;5039152;28;20045;-66
2022/06/18 00:58:11;;;;;;;19.55;9.15;;;;;;;23.42;74.11;99890.03;5035727;28;20029;-67
2022/06/18 01:00:40;;;;;;;10.10;8.15;;;;;;;23.45;74.77;99888.72;5034078;28;20075;-67
2022/06/18 01:03:20;;;;;;;10.70;8.27;;;;;;;23.44;74.99;99874.41;5039918;28;20037;-67
2022/06/18 01:05:46;;;;;;;12.38;9.25;;;;;;;23.51;74.13;99883.19;5039209;28;20041;-67
2022/06/18 01:08:17;;;;;;;13.98;9.43;;;;;;;23.51;74.65;99883.19;5038799;28;20134;-67
2022/06/18 01:10:48;;;;;;;14.85;8.82;;;;;;;23.34;74.26;99844.50;5038077;28;20067;-66
2022/06/18 01:13:17;;;;;;;11.27;9.73;;;;;;;23.45;74.35;99878.75;5036891;28;20021;-67
2022/06/18 01:15:44;;;;;;;11.60;9.73;;;;;;;23.39;74.83;99871.59;5039417;28;20044;-66
2022/06/18 01:18:12;;;;;;;12.32;9.43;;;;;;;23.44;74.91;99877.09;5040481;28;20031;-67
2022/06/18 01:21:19;;;;;;;13.43;9.98;;;;;;;23.37;74.50;99876.44;5041195;28;20030;-67
2022/06/18 01:24:19;;;;;;;11.85;9.60;;;;;;;23.23;73.67;99846.19;5033992;28;20211;-66
2022/06/18 01:26:47;;;;;;;13.25;9.00;;;;;;;23.36;74.25;99879.38;4992128;28;20042;-66
2022/06/18 01:29:13;;;;;;;15.15;10.40;;;;;;;23.32;74.78;99880.91;5040761;28;20056;-67
2022/06/18 01:31:39;;;;;;;14.60;10.27;;;;;;;23.24;75.55;99882.94;5040664;28;20326;-67
2022/06/18 01:34:06;;;;;;;11.50;9.80;;;;;;;23.26;75.68;99885.41;5041485;28;20303;-66
2022/06/18 01:36:34;;;;;;;14.60;10.05;;;;;;;23.33;75.48;99887.97;5020391;28;20063;-67
2022/06/18 01:39:02;;;;;;;13.00;10.32;;;;;;;23.22;76.13;99873.44;5034978;28;20303;-66
2022/06/18 01:41:51;;;;;;;12.63;10.23;;;;;;;23.24;76.39;99893.75;5038081;28;20068;-67
2022/06/18 01:44:26;;;;;;;15.05;11.48;;;;;;;23.10;76.58;99884.31;5038216;28;20112;-66
2022/06/18 01:46:56;;;;;;;14.88;10.90;;;;;;;23.05;76.79;99889.59;5038641;28;20049;-66
2022/06/18 01:49:27;;;;;;;15.23;10.45;;;;;;;23.08;76.97;99889.13;5037508;28;20036;-67
2022/06/18 01:51:55;;;;;;;13.82;10.60;;;;;;;23.05;76.42;99876.09;5037711;28;20033;-66
2022/06/18 01:54:44;;;;;;;16.27;11.30;;;;;;;23.07;76.24;99884.78;5038716;28;20040;-67
2022/06/18 01:57:18;;;;;;;12.75;10.82;;;;;;;22.86;78.25;99874.59;5040835;28;20041;-67
2022/06/18 01:59:50;;;;;;;15.23;11.07;;;;;;;22.62;80.10;99874.63;5038356;28;20100;-66
2022/06/18 02:02:16;;;;;;;18.20;12.00;;;;;;;22.59;80.74;99869.69;5037626;28;20029;-67
2022/06/18 02:04:42;;;;;;;17.83;11.80;;;;;;;22.38;82.41;99862.22;5039242;28;20029;-66
2022/06/18 02:07:09;;;;;;;15.48;12.07;;;;;;;22.48;83.90;99870.53;5038904;28;20045;-67
2022/06/18 02:09:54;;;;;;;14.65;11.27;;;;;;;22.55;83.58;99871.22;5040514;28;20061;-66
2022/06/18 02:12:27;;;;;;;12.43;11.13;;;;;;;22.68;82.63;99877.44;5037208;28;20042;-67
2022/06/18 02:14:57;;;;;;;13.80;11.60;;;;;;;22.62;82.73;99874.63;5037231;28;20267;-66
2022/06/18 02:17:25;;;;;;;24.17;12.05;;;;;;;22.57;82.89;99871.81;5035377;28;20095;-66
2022/06/18 02:19:58;;;;;;;13.25;11.38;;;;;;;22.33;84.53;99877.47;5040701;28;20053;-67
2022/06/18 02:22:30;;;;;;;14.98;12.75;;;;;;;22.21;84.57;99882.88;5039463;28;20029;-66
2022/06/18 02:24:57;;;;;;;14.55;12.30;;;;;;;22.37;83.67;99884.03;5038528;28;20041;-67
2022/06/18 02:27:23;;;;;;;16.15;12.43;;;;;;;22.16;84.28;99872.78;5041053;28;20258;-67
2022/06/18 02:29:49;;;;;;;18.48;12.98;;;;;;;22.32;83.35;99882.03;5043532;28;20055;-67
2022/06/18 02:32:46;;;;;;;14.27;12.52;;;;;;;22.04;85.44;99884.63;5044413;28;20033;-66
2022/06/18 02:35:14;;;;;;;16.75;12.50;;;;;;;22.19;84.83;99879.59;5044613;28;20049;-66
2022/06/18 02:37:40;;;;;;;19.67;13.05;;;;;;;22.01;85.71;99877.78;5045039;28;20041;-66
2022/06/18 02:40:21;;;;;;;15.93;12.13;;;;;;;21.94;85.25;99866.28;5045403;28;20059;-66
2022/06/18 02:42:49;;;;;;;18.35;12.15;;;;;;;21.98;84.96;99879.06;5044639;28;20037;-66
2022/06/18 02:45:17;;;;;;;16.38;12.43;;;;;;;21.94;85.61;99867.13;5045204;28;20030;-66
2022/06/18 02:47:43;;;;;;;16.38;12.43;;;;;;;21.85;86.48;99875.78;5045020;28;20030;-66
2022/06/18 02:50:14;;;;;;;13.38;11.93;;;;;;;21.95;86.48;99879.53;5045456;28;20036;-67
2022/06/18 02:52:46;;;;;;;14.68;11.05;;;;;;;22.22;84.63;99881.81;5044927;28;20047;-66
2022/06/18 02:55:28;;;;;;;14.90;12.27;;;;;;;22.08;85.00;99875.00;5044885;28;20033;-66
2022/06/18 02:58:08;;;;;;;16.33;12.80;;;;;;;21.85;85.37;99849.66;5039553;28;20037;-67
2022/06/18 03:00:38;;;;;;;17.65;12.75;;;;;;;22.07;85.33;99871.50;5044761;28;20104;-66
2022/06/18 03:03:10;;;;;;;18.95;12.25;;;;;;;22.13;84.90;99875.94;5044989;28;20239;-67
2022/06/18 03:05:36;;;;;;;20.35;12.95;;;;;;;21.96;85.87;99870.41;5044758;28;20204;-66
2022/06/18 03:08:02;;;;;;;18.05;12.50;;;;;;;21.72;87.36;99868.69;5044515;28;20099;-66
2022/06/18 03:13:12;;;;;;;18.17;12.40;;;;;;;22.15;85.85;99889.19;5044269;28;20121;-66
2022/06/18 03:15:38;;;;;;;16.42;12.00;;;;;;;22.22;85.58;99882.63;5044438;28;20053;-67
2022/06/18 03:18:03;;;;;;;16.63;11.75;;;;;;;22.37;84.41;99886.75;5044472;28;20035;-67
2022/06/18 03:21:09;;;;;;;18.10;11.45;;;;;;;22.54;82.50;99891.19;5044653;28;20390;-67
2022/06/18 03:23:36;;;;;;;13.90;11.52;;;;;;;22.70;81.21;99891.50;4959907;29;20218;-67
2022/06/18 03:26:02;;;;;;;20.98;12.48;;;;;;;22.61;81.11;99899.97;5016244;28;20052;-66
2022/06/18 03:28:28;;;;;;;18.13;11.68;;;;;;;22.69;80.99;99911.47;5040225;28;20033;-67
2022/06/18 03:30:54;;;;;;;20.70;12.93;;;;;;;22.61;81.00;99909.94;5041403;28;20234;-67
2022/06/18 03:33:20;;;;;;;20.23;12.88;;;;;;;22.53;80.79;99907.59;5039370;28;20029;-66
2022/06/18 03:35:47;;;;;;;14.02;11.80;;;;;;;22.65;80.55;99904.91;5039816;28;20038;-66
2022/06/18 03:38:14;;;;;;;16.38;11.43;;;;;;;22.61;80.18;99908.06;5021731;28;20275;-66
2022/06/18 03:40:41;;;;;;;17.17;11.77;;;;;;;22.58;80.54;99911.25;5023305;28;20033;-66
2022/06/18 03:43:06;;;;;;;15.90;11.75;;;;;;;22.64;80.29;99912.16;5037610;28;20026;-66
2022/06/18 03:45:38;;;;;;;15.00;11.25;;;;;;;22.75;80.06;99911.34;5040757;28;20227;-66
2022/06/18 03:48:06;;;;;;;17.15;12.68;;;;;;;22.72;79.63;99911.81;5042790;28;20101;-66
2022/06/18 03:50:31;;;;;;;15.38;10.38;;;;;;;22.60;78.12;99879.44;5042870;28;20109;-67
2022/06/18 03:52:57;;;;;;;14.15;10.52;;;;;;;22.91;77.96;99920.63;5039495;28;20033;-67
2022/06/18 03:55:24;;;;;;;12.35;10.18;;;;;;;23.07;77.21;99916.38;5040797;28;20056;-66
2022/06/18 03:57:50;;;;;;;13.65;10.23;;;;;;;23.18;76.00;99910.94;5039648;28;20302;-66
2022/06/18 04:00:19;;;;;;;15.82;9.80;;;;;;;23.35;74.31;99910.97;5039468;28;20113;-66
2022/06/18 04:02:46;;;;;;;12.80;9.35;;;;;;;23.35;73.43;99919.09;5040583;28;20287;-66
2022/06/18 04:05:11;;;;;;;13.32;8.95;;;;;;;23.42;73.18;99917.06;5042236;28;20238;-67
2022/06/18 04:07:39;;;;;;;12.10;8.70;;;;;;;23.33;72.88;99902.28;5042425;28;20029;-66
2022/06/18 04:10:06;;;;;;;11.27;8.10;;;;;;;23.49;72.93;99922.31;5042017;28;20091;-67
2022/06/18 04:12:32;;;;;;;11.57;9.27;;;;;;;23.28;73.66;99923.81;5042534;28;20047;-66
2022/06/18 04:14:57;;;;;;;12.55;8.63;;;;;;;23.42;72.83;99914.34;5039975;28;20045;-66
2022/06/18 04:17:23;;;;;;;12.63;8.57;;;;;;;23.64;70.66;99913.69;5039193;28;20032;-66
2022/06/18 04:19:48;;;;;;;10.27;8.20;;;;;;;23.85;70.15;99905.69;5040177;28;20029;-67
2022/06/18 04:22:14;;;;;;;11.43;8.68;;;;;;;24.12;68.19;99911.31;5038729;28;20033;-67
2022/06/18 04:24:40;;;;;;;14.73;9.43;;;;;;;24.37;67.25;99915.50;5039909;28;20037;-67
2022/06/18 04:27:06;;;;;;;14.20;9.10;;;;;;;24.59;66.74;99912.81;5042113;28;20033;-67
2022/06/18 04:29:32;;;;;;;13.57;9.48;;;;;;;24.69;65.81;99913.78;5041459;28;20063;-67
2022/06/18 04:31:59;;;;;;;10.48;8.48;;;;;;;24.77;65.67;99918.78;5039133;28;20338;-67
2022/06/18 04:34:25;;;;;;;14.32;8.68;;;;;;;25.09;64.17;99924.38;5040098;28;20025;-67
2022/06/18 04:36:51;;;;;;;10.88;8.65;;;;;;;25.11;63.85;99916.81;5038730;28;20265;-67
2022/06/18 04:39:16;;;;;;;12.88;8.80;;;;;;;25.20;63.48;99924.50;5038647;28;20037;-67
2022/06/18 04:41:42;;;;;;;12.05;8.77;;;;;;;25.20;63.81;99924.50;5038504;28;20110;-66
2022/06/18 04:44:08;;;;;;;12.45;9.23;;;;;;;25.03;64.69;99919.16;5038614;28;20299;-67
2022/06/18 04:46:34;;;;;;;13.80;8.73;;;;;;;25.25;63.99;99913.72;5039478;28;20040;-67
2022/06/18 04:48:59;;;;;;;14.00;9.35;;;;;;;24.85;65.56;99922.94;5037962;28;20040;-67
2022/06/18 04:51:25;;;;;;;14.23;9.70;;;;;;;24.90;65.29;99923.00;5039922;28;20045;-67
2022/06/18 04:53:50;;;;;;;11.18;9.38;;;;;;;25.02;63.91;99925.63;5038591;28;20029;-67
2022/06/18 04:56:16;;;;;;;14.90;9.82;;;;;;;24.93;65.85;99925.19;5039217;28;20029;-67
2022/06/18 04:58:42;;;;;;;14.57;9.32;;;;;;;25.10;65.57;99922.50;5038261;28;20045;-67
2022/06/18 05:01:07;;;;;;;17.40;9.02;;;;;;;25.07;64.47;99923.81;5039432;28;20243;-67
2022/06/18 05:03:33;;;;;;;16.15;9.52;;;;;;;24.88;65.03;99925.13;5038754;28;20107;-67
2022/06/18 05:05:59;;;;;;;13.93;9.65;;;;;;;24.67;66.31;99928.63;5038696;28;20044;-67
2022/06/18 05:08:25;;;;;;;12.93;9.15;;;;;;;24.61;66.70;99922.34;5041904;28;20040;-67
2022/06/18 05:10:51;;;;;;;12.80;9.45;;;;;;;24.56;67.16;99932.28;5041280;28;20338;-67
2022/06/18 05:13:17;;;;;;;11.90;10.45;;;;;;;24.43;67.70;99920.72;5037144;28;20318;-67
2022/06/18 05:15:45;;;;;;;12.85;9.65;;;;;;;24.45;67.06;99931.31;5039071;28;20073;-67
2022/06/18 05:18:16;;;;;;;14.00;10.13;;;;;;;24.50;66.37;99936.78;5040979;28;20391;-67
2022/06/18 05:20:42;;;;;;;22.90;10.23;;;;;;;24.40;67.71;99942.06;5040214;28;20022;-67
2022/06/18 05:23:10;;;;;;;18.48;10.98;;;;;;;24.46;67.10;99941.88;5037558;28;20032;-66
2022/06/18 05:25:35;;;;;;;16.38;11.57;;;;;;;24.23;67.84;99944.75;5038902;28;20331;-67
2022/06/18 05:28:01;;;;;;;16.77;10.35;;;;;;;24.24;67.50;99953.69;5037725;28;20029;-67
2022/06/18 05:30:27;;;;;;;14.90;10.15;;;;;;;24.48;66.62;99949.75;5038171;28;20025;-66
2022/06/18 05:32:53;;;;;;;15.07;9.77;;;;;;;24.48;66.64;99947.06;5038842;28;20025;-67
2022/06/18 05:35:20;;;;;;;18.10;10.38;;;;;;;24.61;66.14;99945.88;5037799;28;20078;-67
2022/06/18 05:37:47;;;;;;;13.23;9.70;;;;;;;24.71;65.85;99954.16;5034819;28;20025;-67
2022/06/18 05:40:14;;;;;;;11.55;9.75;;;;;;;24.75;66.54;99948.00;5038716;28;20036;-67
2022/06/18 05:42:39;;;;;;;13.13;10.23;;;;;;;24.45;65.16;99939.44;5037003;28;20056;-66
2022/06/18 05:45:06;;;;;;;11.25;8.60;;;;;;;24.67;63.05;99943.00;5039006;28;20359;-67
2022/06/18 05:47:32;;;;;;;15.80;9.82;;;;;;;24.77;63.06;99955.88;5038506;28;20037;-67
2022/06/18 05:49:58;;;;;;;13.82;8.68;;;;;;;24.90;61.94;99957.38;5040921;28;20035;-67
2022/06/18 05:52:26;;;;;;;10.85;9.43;;;;;;;25.08;60.67;99957.16;5038929;28;20086;-66
2022/06/18 05:54:51;;;;;;;17.77;10.18;;;;;;;25.20;60.37;99957.84;5039849;28;20037;-67
2022/06/18 05:57:21;;;;;;;11.43;8.68;;;;;;;25.39;59.93;99964.56;5040921;28;20044;-67
2022/06/18 05:59:47;;;;;;;17.35;8.00;;;;;;;25.49;60.17;99960.31;5038184;28;20033;-67
2022/06/18 06:02:14;;;;;;;11.38;8.00;;;;;;;25.18;59.38;99959.97;5039443;28;20045;-67
2022/06/18 06:04:42;;;;;;;15.20;9.65;;;;;;;25.43;58.88;99962.16;5037364;28;20045;-67
2022/06/18 06:07:20;;;;;;;13.75;9.32;;;;;;;25.61;58.25;99967.25;5038847;28;20063;-67
2022/06/18 06:12:30;;;;;;;13.45;7.90;;;;;;;26.54;54.75;99954.28;5038517;28;20511;-67
2022/06/18 06:14:56;;;;;;;10.68;8.05;;;;;;;26.36;54.39;99962.84;5037086;28;20041;-67
2022/06/18 06:17:24;;;;;;;8.98;6.88;;;;;;;26.77;51.99;99960.41;5037185;28;20441;-67
2022/06/18 06:19:50;;;;;;;11.52;8.55;;;;;;;26.44;54.40;99945.25;5037855;28;20056;-67
2022/06/18 06:22:15;;;;;;;11.23;8.23;;;;;;;26.68;55.07;99965.50;5036917;28;20033;-67
2022/06/18 06:24:41;;;;;;;14.02;10.10;;;;;;;26.42;55.01;99967.25;5037753;28;20036;-67
2022/06/18 06:27:09;;;;;;;12.13;7.70;;;;;;;26.83;53.60;99951.19;5038058;28;20026;-67
2022/06/18 06:29:35;;;;;;;10.23;7.85;;;;;;;26.88;53.91;99962.09;5038919;28;20376;-67
2022/06/18 06:32:00;;;;;;;10.88;8.10;;;;;;;26.83;54.11;99959.34;5038713;28;20021;-67
2022/06/18 06:34:26;;;;;;;12.90;7.55;;;;;;;26.79;54.26;99959.06;5038527;28;20254;-67
2022/06/18 06:36:51;;;;;;;12.05;7.60;;;;;;;26.59;53.79;99956.22;5037155;28;20394;-67
2022/06/18 06:39:17;;;;;;;15.48;8.52;;;;;;;26.50;55.15;99949.63;5037170;28;20021;-67
2022/06/18 06:41:44;;;;;;;10.88;7.85;;;;;;;26.36;53.99;99952.81;5037696;28;20099;-67
2022/06/18 06:44:10;;;;;;;9.23;7.00;;;;;;;26.12;55.09;99959.66;5036819;28;20442;-67
2022/06/18 06:46:36;;;;;;;13.15;8.10;;;;;;;25.81;56.64;99965.84;5037328;28;20045;-67
2022/06/18 06:49:01;;;;;;;9.45;7.90;;;;;;;25.92;56.15;99965.69;5037736;28;20021;-67
2022/06/18 06:51:29;;;;;;;13.32;8.23;;;;;;;25.93;56.72;99959.19;5036692;28;20041;-66
2022/06/18 06:53:54;;;;;;;14.75;7.75;;;;;;;26.21;55.44;99966.22;5034171;28;20040;-67
2022/06/18 06:59:08;;;;;;;8.52;7.07;;;;;;;26.32;54.66;99956.28;5040190;28;20350;-67
2022/06/18 07:01:34;;;;;;;11.85;7.43;;;;;;;26.46;54.01;99962.09;5038672;28;20045;-67
2022/06/18 07:04:01;;;;;;;14.18;6.80;;;;;;;26.89;52.67;99966.44;5036522;28;20029;-66
2022/06/18 07:06:26;;;;;;;8.07;6.70;;;;;;;27.18;52.08;99956.03;5037076;28;20264;-67
2022/06/18 07:08:52;;;;;;;10.65;6.90;;;;;;;27.53;51.30;99963.47;5037673;28;20048;-67
2022/06/18 07:11:17;;;;;;;15.38;6.90;;;;;;;28.06;49.39;99956.78;5038146;28;20033;-67
2022/06/18 07:13:43;;;;;;;9.60;6.25;;;;;;;28.04;47.66;99958.97;5040758;28;20052;-67
2022/06/18 07:16:10;;;;;;;15.13;6.38;;;;;;;28.37;46.76;99951.38;5041114;28;20033;-67
2022/06/18 07:18:37;;;;;;;11.88;6.35;;;;;;;28.75;46.90;99966.31;5043651;28;20032;-67
2022/06/18 07:21:05;;;;;;;10.43;6.53;;;;;;;28.91;43.92;99960.56;5041543;28;20041;-67
2022/06/18 07:23:31;;;;;;;9.60;6.00;;;;;;;28.66;44.23;99952.44;5040624;28;20242;-67
2022/06/18 07:25:57;;;;;;;8.23;6.70;;;;;;;28.81;45.66;99957.84;5040009;28;20030;-67
2022/06/18 07:28:23;;;;;;;7.45;5.63;;;;;;;28.87;43.25;99948.59;5040872;28;20045;-67
2022/06/18 07:30:49;;;;;;;8.32;5.68;;;;;;;29.29;42.74;99952.81;5040905;28;20163;-67
2022/06/18 07:33:26;;;;;;;10.68;5.45;;;;;;;29.64;41.11;99968.19;5039929;28;20319;-67
2022/06/18 07:35:52;;;;;;;7.18;5.28;;;;;;;29.48;42.24;99963.91;5038102;28;20279;-67
2022/06/18 07:38:18;;;;;;;12.02;6.00;;;;;;;29.40;42.83;99959.03;5041227;28;20088;-67
2022/06/18 07:40:49;;;;;;;11.38;5.78;;;;;;;29.62;42.02;99970.38;5043448;28;20039;-67
2022/06/18 07:43:28;;;;;;;10.30;7.43;;;;;;;29.02;45.69;99968.69;5041044;28;20029;-67
2022/06/18 07:45:53;;;;;;;9.32;7.13;;;;;;;28.41;48.18;99974.25;5037644;28;20032;-67
2022/06/18 07:48:19;;;;;;;12.95;8.25;;;;;;;27.88;49.93;99976.38;5040485;28;20022;-66
2022/06/18 07:50:48;;;;;;;9.20;7.45;;;;;;;27.24;50.55;99966.66;5039949;28;20315;-67
2022/06/18 07:53:20;;;;;;;9.73;6.97;;;;;;;26.89;52.99;99967.25;5039540;28;20040;-67
2022/06/18 07:55:46;;;;;;;8.40;6.53;;;;;;;26.34;53.66;99973.16;5039971;28;20335;-67
2022/06/18 07:58:11;;;;;;;9.75;7.30;;;;;;;26.67;54.52;99980.16;5039388;28;20038;-67
2022/06/18 08:00:39;;;;;;;8.90;8.00;;;;;;;26.57;54.70;99972.78;5042869;28;20293;-67
2022/06/18 08:03:07;;;;;;;10.23;8.30;;;;;;;26.43;54.36;99962.63;5041354;28;20025;-67
2022/06/18 08:05:32;;;;;;;10.15;7.85;;;;;;;26.30;55.16;99974.72;5040492;28;20385;-67
2022/06/18 08:07:58;;;;;;;10.07;8.10;;;;;;;25.89;56.34;99989.78;5041686;28;20407;-67
2022/06/18 08:10:24;;;;;;;14.30;9.00;;;;;;;25.63;56.84;99981.38;5042470;28;20041;-67
2022/06/18 08:12:49;;;;;;;13.45;9.18;;;;;;;25.61;57.55;99977.28;5039473;28;20026;-66
2022/06/18 08:15:15;;;;;;;13.38;7.03;;;;;;;25.92;53.14;99968.41;5038490;28;20045;-66
2022/06/18 08:17:40;;;;;;;7.50;4.10;;;;;;;26.17;48.74;99967.81;5038971;28;20045;-67
2022/06/18 08:20:08;;;;;;;6.05;4.60;;;;;;;25.81;48.08;99973.97;5040377;28;20045;-67
2022/06/18 08:22:35;;;;;;;7.35;4.90;;;;;;;25.82;49.75;99967.47;5037607;28;20021;-67
2022/06/18 08:25:00;;;;;;;6.35;5.00;;;;;;;26.02;49.92;99973.13;5039377;28;20320;-66
2022/06/18 08:27:26;;;;;;;8.43;6.07;;;;;;;26.00;52.93;99972.53;5039459;28;20235;-67
2022/06/18 08:29:52;;;;;;;8.90;6.53;;;;;;;26.20;51.89;99977.34;5039016;28;20048;-67
2022/06/18 08:32:17;;;;;;;7.68;4.32;;;;;;;26.29;49.46;99946.75;5041160;28;20032;-67
2022/06/18 08:34:43;;;;;;;6.35;4.35;;;;;;;26.60;49.55;99969.53;5042015;28;20033;-67
2022/06/18 08:37:09;;;;;;;5.63;5.13;;;;;;;26.76;48.35;99972.34;5039541;28;20021;-67
2022/06/18 08:39:36;;;;;;;8.23;5.00;;;;;;;26.30;49.18;99977.44;5038547;28;20037;-67
2022/06/18 08:42:29;;;;;;;6.57;5.25;;;;;;;26.56;49.03;99970.31;5038385;28;20021;-67
2022/06/18 08:45:09;;;;;;;9.38;5.50;;;;;;;26.49;49.56;99980.59;5037699;28;20084;-66
2022/06/18 08:47:59;;;;;;;14.60;5.72;;;;;;;26.82;51.03;99979.44;5038246;28;20033;-67
2022/06/18 08:50:51;;;;;;;6.68;5.63;;;;;;;26.84;47.45;99980.81;5039431;28;20769;-67
2022/06/18 08:53:52;;;;;;;9.10;5.03;;;;;;;26.97;49.50;99977.66;5039166;28;20037;-67
2022/06/18 08:56:38;;;;;;;10.10;5.55;;;;;;;26.88;48.68;99976.50;5039415;28;20063;-67
2022/06/18 08:59:21;;;;;;;14.60;6.90;;;;;;;26.45;52.08;99980.28;5041625;28;20033;-67
2022/06/18 09:01:57;;;;;;;6.47;4.90;;;;;;;25.82;49.73;99976.44;5039343;28;20091;-67
2022/06/18 09:04:53;;;;;;;11.13;6.45;;;;;;;25.99;50.58;99971.72;5041934;28;20112;-67
2022/06/18 09:07:37;;;;;;;6.85;5.57;;;;;;;26.66;51.57;99968.47;5040699;28;20100;-67
2022/06/18 09:10:38;;;;;;;8.25;6.05;;;;;;;26.88;50.49;99960.19;5042210;28;20096;-67
2022/06/18 09:13:18;;;;;;;7.93;5.50;;;;;;;27.22;51.26;99962.56;5038331;28;20037;-67
2022/06/18 09:15:49;;;;;;;9.57;5.32;;;;;;;26.86;48.50;99962.34;5037881;28;20036;-67
2022/06/18 09:18:26;;;;;;;6.18;4.82;;;;;;;26.52;49.79;99959.16;5038258;28;20100;-67
2022/06/18 09:20:55;;;;;;;7.82;5.57;;;;;;;26.53;49.39;99917.34;5036513;28;20223;-66
2022/06/18 09:23:25;;;;;;;5.75;5.10;;;;;;;26.83;51.93;99941.16;5039689;28;20188;-67
2022/06/18 09:25:54;;;;;;;7.18;5.93;;;;;;;26.49;52.49;99934.44;5041308;28;20235;-66
2022/06/18 09:28:27;;;;;;;6.60;5.90;;;;;;;26.61;50.04;99937.75;5039174;28;20037;-67
2022/06/18 09:30:55;;;;;;;10.90;5.50;;;;;;;26.89;49.03;99952.84;5035623;28;20025;-67
2022/06/18 09:33:28;;;;;;;7.05;5.80;;;;;;;27.09;50.39;99961.16;5038415;28;20643;-67
2022/06/18 09:35:58;;;;;;;7.37;5.50;;;;;;;26.99;48.36;99985.53;5037815;28;20041;-67
2022/06/18 09:38:29;;;;;;;6.90;5.35;;;;;;;26.43;51.29;99993.31;5040017;28;20029;-66
2022/06/18 09:41:02;;;;;;;10.55;5.40;;;;;;;26.29;50.88;100017.34;5039831;28;20052;-66
2022/06/18 09:43:42;;;;;;;23.13;3.90;;;;;;;24.27;47.91;100067.69;5041086;28;20095;-66
2022/06/18 09:46:28;;;;;;;8.52;3.15;;;;;;;23.39;50.54;100039.16;5037434;28;20064;-66
2022/06/18 09:48:53;;;;;;;4.78;1.90;;;;;;;22.68;50.32;100052.88;5038537;28;20092;-66
2022/06/18 09:51:38;;;;;;;2.88;2.25;;;;;;;22.32;51.91;100029.59;5040881;28;20048;-66
2022/06/18 09:54:05;;;;;;;;;;;;;;;22.35;50.95;100037.22;5038001;28;20064;-66
2022/06/18 09:56:50;;;;;;;9.95;2.40;;;;;;;22.45;50.92;100032.09;5038721;28;19955;-66
2022/06/18 09:59:23;;;;;;;3.17;2.13;;;;;;;22.46;52.61;100033.72;5035592;28;20297;-66
2022/06/18 10:01:55;;;;;;;5.13;3.00;;;;;;;22.52;53.66;100036.31;5038673;28;20033;-66
2022/06/18 10:07:27;;;;;;;15.48;4.65;;;;;;;22.27;63.15;100036.50;5038005;28;20037;-66
2022/06/18 10:10:00;;;;;;;17.63;6.53;;;;;;;22.04;75.51;100031.06;5037225;28;20037;-66
2022/06/18 10:15:06;;;;;;;12.05;7.18;;;;;;;21.59;83.43;100025.19;4944168;26;20054;-65
2022/06/18 10:17:58;;;;;;;13.23;6.70;;;;;;;21.42;90.76;100029.56;5021340;28;20038;-65
2022/06/18 10:20:41;;;;;;;11.40;7.05;;;;;;;21.53;92.66;100035.00;5022268;28;20021;-66
2022/06/18 10:23:13;;;;;;;6.82;5.57;;;;;;;21.33;89.41;100054.09;5022063;28;20038;-66
2022/06/18 10:26:00;;;;;;;8.05;5.72;;;;;;;21.21;89.68;100036.19;5021976;28;20038;-66
2022/06/18 10:28:44;;;;;;;11.77;7.05;;;;;;;21.34;90.54;100036.06;5021753;28;20053;-65
2022/06/18 10:31:18;;;;;;;5.50;4.45;;;;;;;21.02;84.23;100036.19;5017071;28;20025;-65
2022/06/18 10:34:02;;;;;;;9.07;4.72;;;;;;;21.26;84.14;100037.19;5022181;28;20038;-65
2022/06/18 10:36:40;;;;;;;6.25;4.68;;;;;;;21.31;82.97;100041.91;5022096;28;20370;-65
2022/06/18 10:39:05;;;;;;;5.75;4.43;;;;;;;21.64;79.19;100042.31;5021838;28;20100;-65
2022/06/18 10:42:00;;;;;;;5.15;3.78;;;;;;;21.72;76.65;100049.28;5021702;28;20052;-65
2022/06/18 10:44:43;;;;;;;4.25;3.85;;;;;;;21.90;78.54;100053.84;5021843;28;20033;-65
2022/06/18 10:47:15;;;;;;;6.45;3.63;;;;;;;22.15;75.51;100057.22;5025081;28;20254;-66
2022/06/18 10:49:40;;;;;;;5.03;3.53;;;;;;;22.35;73.72;100066.91;5024783;28;20058;-65
2022/06/18 10:52:17;;;;;;;6.30;3.53;;;;;;;22.61;73.31;100072.69;5025659;28;20204;-66
2022/06/18 10:54:43;;;;;;;5.72;3.80;;;;;;;22.73;71.53;100086.22;5025339;28;20112;-66
2022/06/18 10:57:22;;;;;;;6.75;4.80;;;;;;;22.58;73.12;100096.63;5025555;28;20033;-65
2022/06/18 10:59:48;;;;;;;9.13;4.43;;;;;;;22.40;71.45;100119.13;5025226;28;20038;-66
2022/06/18 11:02:35;;;;;;;4.30;3.58;;;;;;;22.71;70.25;100120.72;5025303;28;20026;-65
2022/06/18 11:05:23;;;;;;;4.63;4.13;;;;;;;22.92;71.26;100138.31;5025580;28;20303;-66
2022/06/18 11:07:51;;;;;;;7.38;4.93;;;;;;;23.15;72.26;100149.13;5016747;28;20042;-66
2022/06/18 11:10:30;;;;;;;10.43;5.13;;;;;;;23.41;73.29;100157.81;5006115;28;20026;-66
2022/06/18 11:12:57;;;;;;;23.90;6.75;;;;;;;23.52;72.34;100160.50;5004476;28;20065;-66
2022/06/18 11:15:34;;;;;;;18.05;8.18;;;;;;;23.63;74.19;100158.88;5032800;28;20203;-66
2022/06/18 11:18:14;;;;;;;10.70;7.03;;;;;;;23.61;74.74;100157.47;5045757;28;20026;-66
2022/06/18 11:20:51;;;;;;;14.10;6.72;;;;;;;23.41;76.63;100152.41;5044972;28;20037;-66
2022/06/18 11:23:17;;;;;;;8.77;5.05;;;;;;;23.14;77.31;100150.19;5045093;28;20348;-66
2022/06/18 11:25:51;;;;;;;12.52;4.85;;;;;;;23.41;76.03;100150.53;5045853;28;20064;-66
2022/06/18 11:28:23;;;;;;;10.70;4.63;;;;;;;23.45;74.44;100146.28;5043413;28;20327;-66
2022/06/18 11:30:52;;;;;;;9.32;4.50;;;;;;;23.33;76.12;100153.59;5043482;28;20036;-65
2022/06/18 11:33:39;;;;;;;5.90;4.05;;;;;;;23.43;74.72;100150.28;5044456;28;20055;-66
2022/06/18 11:36:14;;;;;;;10.48;4.93;;;;;;;23.35;77.39;100137.97;5044263;28;20037;-66
2022/06/18 11:38:49;;;;;;;14.40;5.30;;;;;;;23.20;78.23;100133.03;5043270;28;20314;-66
2022/06/18 11:41:30;;;;;;;13.52;5.25;;;;;;;23.13;78.85;100120.69;5043718;28;20056;-66
2022/06/18 11:44:36;;;;;;;10.38;4.95;;;;;;;23.19;79.54;100111.66;5043249;28;20025;-66
2022/06/18 11:47:10;;;;;;;11.00;4.95;;;;;;;23.03;79.89;100117.75;5037942;28;20097;-66
2022/06/18 11:49:48;;;;;;;17.02;5.70;;;;;;;22.91;83.99;100115.88;5044468;28;20293;-65
2022/06/18 11:52:26;;;;;;;14.63;6.57;;;;;;;22.83;85.59;100116.19;5044782;28;20056;-66
2022/06/18 11:54:58;;;;;;;13.27;5.88;;;;;;;22.99;83.92;100122.81;5042940;28;20032;-66
2022/06/18 11:57:35;;;;;;;9.57;5.35;;;;;;;23.14;82.14;100108.84;5043731;28;20029;-65